Time;durP1;ratioP1;P1;durP2;ratioP2;P2;SDS_P1;SDS_P2;PMS_P1;PMS_P2;Temp;Humidity;BMP_temperature;BMP_pressure;BME280_temperature;BME280_humidity;BME280_pressure;Samples;Min_cycle;Max_cycle;Signal;HPM_P1;HPM_P2
2022/01/08 00:00:15;;;;;;;13.82;9.02;;;;;;;0.38;94.53;101021.38;5015084;28;20025;-92
2022/01/08 00:02:42;;;;;;;14.52;7.75;;;;;;;0.37;94.32;101016.13;5015424;28;20040;-91
2022/01/08 00:05:09;;;;;;;18.38;8.60;;;;;;;0.37;94.30;101017.03;5015158;28;20338;-90
2022/01/08 00:07:35;;;;;;;21.73;9.18;;;;;;;0.37;93.91;101017.03;5014907;28;20029;-91
2022/01/08 00:10:00;;;;;;;19.05;8.98;;;;;;;0.34;94.15;101022.16;5031642;28;20091;-92
2022/01/08 00:12:26;;;;;;;16.92;9.02;;;;;;;0.33;94.13;101016.94;5032626;28;20039;-93
2022/01/08 00:14:52;;;;;;;15.63;9.18;;;;;;;0.36;94.77;101022.19;4998388;28;20040;-92
2022/01/08 00:17:17;;;;;;;16.77;8.85;;;;;;;0.40;94.80;101035.34;5014769;28;20028;-92
2022/01/08 00:19:43;;;;;;;18.00;9.27;;;;;;;0.33;94.36;101030.81;5014592;28;20505;-91
2022/01/08 00:22:11;;;;;;;20.92;9.27;;;;;;;0.37;94.33;101037.88;5014111;28;20702;-91
2022/01/08 00:24:37;;;;;;;16.05;9.75;;;;;;;0.35;94.58;101039.56;5022327;28;20048;-90
2022/01/08 00:27:05;;;;;;;14.57;8.90;;;;;;;0.29;94.14;101026.38;5015607;28;20092;-90
2022/01/08 00:29:31;;;;;;;24.48;9.55;;;;;;;0.35;94.42;101046.50;5014477;28;20033;-90
2022/01/08 00:31:56;;;;;;;20.52;9.35;;;;;;;0.25;94.49;101024.56;5015030;28;20119;-91
2022/01/08 00:34:22;;;;;;;17.65;9.07;;;;;;;0.27;94.34;101041.09;4998642;28;20105;-89
2022/01/08 00:36:47;;;;;;;20.05;8.82;;;;;;;0.23;94.45;101044.50;5014530;28;20030;-92
2022/01/08 00:39:13;;;;;;;16.48;8.93;;;;;;;0.23;94.26;101047.09;5014625;28;20025;-91
2022/01/08 00:41:38;;;;;;;15.70;9.23;;;;;;;0.26;94.08;101043.69;5014247;28;20131;-91
2022/01/08 00:44:04;;;;;;;24.25;9.30;;;;;;;0.21;93.93;101038.34;5030004;28;20033;-92
2022/01/08 00:46:30;;;;;;;18.92;8.90;;;;;;;0.21;94.31;101054.84;5030818;28;20051;-91
2022/01/08 00:48:55;;;;;;;17.20;8.13;;;;;;;0.18;93.97;101057.41;4998178;28;20052;-91
2022/01/08 00:51:21;;;;;;;19.13;9.88;;;;;;;0.23;94.16;101070.53;5014172;28;20037;-90
2022/01/08 00:53:46;;;;;;;21.52;9.70;;;;;;;0.20;94.21;101073.94;5014900;28;20030;-92
2022/01/08 00:56:14;;;;;;;19.13;9.88;;;;;;;0.22;94.61;101081.78;5048721;28;20354;-91
2022/01/08 00:58:41;;;;;;;16.48;8.50;;;;;;;0.23;94.19;101077.47;5034182;28;20029;-91
2022/01/08 01:01:07;;;;;;;18.92;8.85;;;;;;;0.23;94.80;101078.34;5034319;28;20043;-93
2022/01/08 01:03:33;;;;;;;15.43;7.95;;;;;;;0.18;94.75;101067.81;5051495;28;20392;-91
2022/01/08 01:05:58;;;;;;;18.92;7.93;;;;;;;0.28;94.75;101073.25;5034212;28;20055;-92
2022/01/08 01:08:24;;;;;;;16.88;7.68;;;;;;;0.23;94.58;101067.06;5034386;28;20044;-91
2022/01/08 01:10:50;;;;;;;14.05;7.63;;;;;;;0.23;94.80;101067.94;5034327;28;20032;-91
2022/01/08 01:13:15;;;;;;;15.10;7.40;;;;;;;0.25;94.65;101061.03;5046891;28;20112;-91
2022/01/08 01:15:41;;;;;;;15.88;7.68;;;;;;;0.23;94.74;101064.44;5014703;28;20037;-90
2022/01/08 01:18:08;;;;;;;21.35;8.57;;;;;;;0.21;94.52;101059.19;5014102;28;20128;-91
2022/01/08 01:20:33;;;;;;;15.13;8.48;;;;;;;0.26;93.95;101060.19;5014612;28;20091;-90
2022/01/08 01:23:09;;;;;;;18.35;8.52;;;;;;;0.23;94.01;101056.63;5030948;28;20033;-92
2022/01/08 01:25:40;;;;;;;15.70;8.07;;;;;;;0.24;93.94;101061.88;5014180;28;20136;-91
2022/01/08 01:28:24;;;;;;;19.00;9.07;;;;;;;0.16;93.80;101048.66;5030814;28;20038;-93
2022/01/08 01:47:04;;;;;;;15.35;7.70;;;;;;;0.15;94.10;101085.97;5030684;28;20168;-93
2022/01/08 01:49:37;;;;;;;13.43;7.55;;;;;;;0.16;94.03;101086.84;5030563;28;20037;-93
2022/01/08 01:52:06;;;;;;;21.67;8.75;;;;;;;0.10;93.78;101076.28;5030580;28;20058;-91
2022/01/08 01:54:33;;;;;;;17.10;7.85;;;;;;;0.08;93.69;101077.97;5030112;28;20389;-92
2022/01/08 01:57:00;;;;;;;18.75;8.20;;;;;;;0.03;93.71;101075.25;5016774;28;20037;-91
2022/01/08 01:59:28;;;;;;;14.30;7.45;;;;;;;0.09;93.64;101074.53;5017418;28;20033;-91
2022/01/08 02:01:54;;;;;;;14.20;8.15;;;;;;;0.01;93.59;101066.53;5034187;28;20434;-91
2022/01/08 02:04:20;;;;;;;12.98;9.27;;;;;;;0.01;93.27;101070.84;5033718;28;20472;-92
2022/01/08 02:06:46;;;;;;;15.90;8.07;;;;;;;0.02;93.55;101083.91;5033355;28;20106;-91
2022/01/08 02:09:15;;;;;;;15.15;8.90;;;;;;;-0.08;93.86;101059.34;5033642;28;20036;-93
2022/01/08 02:11:56;;;;;;;17.60;8.50;;;;;;;-0.04;93.72;101074.22;5033861;28;20037;-91
2022/01/08 02:14:22;;;;;;;16.70;9.00;;;;;;;-0.11;93.79;101061.88;5017297;28;20041;-93
2022/01/08 02:16:49;;;;;;;18.13;9.02;;;;;;;-0.09;94.04;101067.16;5033742;28;20029;-91
2022/01/08 02:19:14;;;;;;;19.73;9.32;;;;;;;-0.17;94.00;101063.44;5033816;28;20030;-92
2022/01/08 02:22:10;;;;;;;15.73;9.98;;;;;;;-0.16;94.05;101067.81;5017390;28;20040;-92
2022/01/08 02:24:36;;;;;;;20.30;9.48;;;;;;;-0.16;93.90;101076.50;5017217;28;20525;-92
2022/01/08 02:27:02;;;;;;;22.58;10.00;;;;;;;-0.21;94.06;101080.72;5033217;28;20040;-92
2022/01/08 02:29:27;;;;;;;15.80;9.68;;;;;;;-0.23;94.48;101079.78;5033339;28;20520;-92
2022/01/08 02:32:08;;;;;;;18.13;10.43;;;;;;;-0.21;94.70;101080.72;5016626;28;20033;-92
2022/01/08 02:34:37;;;;;;;17.45;11.10;;;;;;;-0.30;94.27;101072.66;5031298;28;20423;-89
2022/01/08 02:37:03;;;;;;;23.60;10.82;;;;;;;-0.28;94.64;101086.59;5036263;28;20126;-93
2022/01/08 02:39:31;;;;;;;20.23;13.02;;;;;;;-0.31;94.81;101082.19;5054069;28;20052;-91
2022/01/08 02:41:59;;;;;;;18.73;11.95;;;;;;;-0.33;95.43;101083.00;5036196;28;20124;-91
2022/01/08 02:44:26;;;;;;;23.90;13.70;;;;;;;-0.31;95.14;101086.53;5036069;28;20048;-91
2022/01/08 02:46:52;;;;;;;23.88;12.73;;;;;;;-0.33;95.00;101075.19;5019597;28;20501;-91
2022/01/08 02:49:17;;;;;;;24.50;11.90;;;;;;;-0.28;95.55;101079.66;5036097;28;20033;-92
2022/01/08 02:51:44;;;;;;;21.95;12.73;;;;;;;-0.31;95.52;101084.81;5036541;28;20037;-91
2022/01/08 02:54:11;;;;;;;25.52;11.35;;;;;;;-0.26;95.89;101095.34;5036420;28;20136;-91
2022/01/08 02:56:42;;;;;;;17.90;12.15;;;;;;;-0.30;95.84;101085.69;5036194;28;20041;-92
2022/01/08 02:59:08;;;;;;;;;;;;;;;-0.22;95.50;101098.06;5036310;28;20025;-92
2022/01/08 03:01:34;;;;;;;21.20;12.15;;;;;;;-0.31;95.17;101081.31;5052521;28;20003;-91
2022/01/08 03:04:00;;;;;;;21.60;12.63;;;;;;;-0.27;95.50;101091.00;5035767;28;20037;-92
2022/01/08 03:06:26;;;;;;;21.02;12.23;;;;;;;-0.29;95.16;101077.91;5018834;28;20048;-90
2022/01/08 03:08:52;;;;;;;20.25;11.77;;;;;;;-0.24;95.41;101096.25;5034452;28;20198;-92
2022/01/08 03:11:17;;;;;;;24.40;12.68;;;;;;;-0.27;95.33;101089.25;5019588;28;20075;-91
2022/01/08 03:13:43;;;;;;;21.00;10.77;;;;;;;-0.30;95.21;101083.06;5035526;28;20044;-91
2022/01/08 03:16:09;;;;;;;24.02;11.88;;;;;;;-0.28;94.98;101084.00;5035875;28;20028;-92
2022/01/08 03:18:37;;;;;;;19.73;13.05;;;;;;;-0.27;95.20;101078.84;5051941;28;20094;-92
2022/01/08 03:21:11;;;;;;;22.65;12.65;;;;;;;-0.34;95.11;101076.06;5035066;28;20124;-91
2022/01/08 03:23:43;;;;;;;22.40;12.25;;;;;;;-0.37;95.05;101076.84;5036070;28;20044;-91
2022/01/08 03:26:10;;;;;;;26.88;12.20;;;;;;;-0.33;95.58;101088.22;5016932;28;20060;-89
2022/01/08 03:28:36;;;;;;;21.13;12.32;;;;;;;-0.33;95.46;101088.22;5020440;28;20037;-91
2022/01/08 03:31:01;;;;;;;22.60;11.90;;;;;;;-0.39;95.42;101080.25;5016672;28;20060;-91
2022/01/08 03:33:27;;;;;;;24.63;12.32;;;;;;;-0.33;95.59;101093.41;5015554;28;20115;-91
2022/01/08 03:35:53;;;;;;;33.35;14.82;;;;;;;-0.35;95.34;101095.97;5016321;28;20029;-91
2022/01/08 03:38:18;;;;;;;25.48;11.82;;;;;;;-0.39;95.66;101081.13;5015471;28;20539;-91
2022/01/08 03:40:44;;;;;;;23.77;12.57;;;;;;;-0.38;95.59;101088.09;5032147;28;20120;-92
2022/01/08 03:43:09;;;;;;;23.42;13.13;;;;;;;-0.37;95.55;101094.16;5015382;28;20044;-92
2022/01/08 03:45:35;;;;;;;21.60;11.60;;;;;;;-0.44;95.23;101086.22;5032386;28;20021;-91
2022/01/08 03:50:26;;;;;;;21.13;12.38;;;;;;;-0.41;95.42;101102.75;5051645;28;20436;-91
2022/01/08 03:52:51;;;;;;;25.85;12.25;;;;;;;-0.43;95.37;101100.97;5034567;28;20504;-92
2022/01/08 03:55:17;;;;;;;23.58;11.55;;;;;;;-0.45;95.25;101089.63;5034628;28;20071;-91
2022/01/08 03:57:43;;;;;;;21.42;12.20;;;;;;;-0.41;95.36;101093.22;5034468;28;20491;-91
2022/01/08 04:00:09;;;;;;;23.27;12.25;;;;;;;-0.48;95.54;101096.47;5018181;28;20037;-90
2022/01/08 04:02:39;;;;;;;22.52;12.27;;;;;;;-0.47;95.39;101096.53;5014750;28;20033;-91
2022/01/08 04:05:05;;;;;;;26.85;11.98;;;;;;;-0.45;95.65;101106.97;5014582;28;20095;-90
2022/01/08 04:07:30;;;;;;;25.25;11.40;;;;;;;-0.46;95.49;101100.00;4998887;28;20067;-90
2022/01/08 04:09:56;;;;;;;20.48;11.02;;;;;;;-0.50;95.77;101105.97;4998099;28;20065;-92
2022/01/08 04:12:31;;;;;;;32.42;12.48;;;;;;;-0.53;95.60;101108.50;5014502;28;20030;-91
2022/01/08 04:15:06;;;;;;;20.10;10.82;;;;;;;-0.53;95.46;101103.28;5014394;28;20048;-91
2022/01/08 04:17:32;;;;;;;28.95;11.38;;;;;;;-0.56;95.53;101098.88;5014327;28;20462;-90
2022/01/08 04:19:57;;;;;;;21.63;10.18;;;;;;;-0.51;95.47;101112.03;5014540;28;20106;-91
2022/01/08 04:22:24;;;;;;;24.73;10.57;;;;;;;-0.51;95.67;101110.28;5014386;28;20064;-91
2022/01/08 04:24:50;;;;;;;22.63;10.65;;;;;;;-0.50;95.94;101112.03;5014066;28;20453;-91
2022/01/08 04:27:16;;;;;;;33.70;12.68;;;;;;;-0.51;96.08;101118.09;5014145;28;20045;-92
2022/01/08 04:29:41;;;;;;;24.20;10.02;;;;;;;-0.58;95.99;101112.69;5014230;28;20037;-89
2022/01/08 04:32:07;;;;;;;20.35;11.60;;;;;;;-0.60;96.24;101117.84;5014082;28;20071;-91
2022/01/08 04:34:33;;;;;;;18.08;10.02;;;;;;;-0.50;96.32;101129.38;5011983;28;20485;-91
2022/01/08 04:36:59;;;;;;;15.98;10.30;;;;;;;-0.60;96.54;101123.03;5033654;28;20037;-91
2022/01/08 04:39:24;;;;;;;26.55;12.30;;;;;;;-0.55;96.30;101133.56;5033844;28;20028;-91
2022/01/08 04:41:50;;;;;;;21.35;10.90;;;;;;;-0.56;96.24;101114.50;5033598;28;20461;-92
2022/01/08 04:44:16;;;;;;;20.23;9.50;;;;;;;-0.55;96.42;101126.66;5046971;28;20389;-93
2022/01/08 04:46:41;;;;;;;22.80;9.77;;;;;;;-0.55;96.25;101123.16;5030112;28;20037;-91
2022/01/08 04:49:08;;;;;;;21.80;10.93;;;;;;;-0.54;96.16;101119.75;5030350;28;20025;-92
2022/01/08 04:51:34;;;;;;;21.75;9.45;;;;;;;-0.57;96.44;101133.56;5014042;28;20048;-91
2022/01/08 04:53:59;;;;;;;18.00;10.07;;;;;;;-0.59;95.92;101130.03;5030545;28;20037;-91
2022/01/08 04:56:25;;;;;;;22.50;9.93;;;;;;;-0.53;96.01;101155.31;5030332;28;20177;-91
2022/01/08 04:58:50;;;;;;;23.25;10.70;;;;;;;-0.56;96.31;101156.09;5014371;28;20103;-90
2022/01/08 05:01:18;;;;;;;18.60;9.25;;;;;;;-0.61;96.27;101144.69;5014217;28;20033;-91
2022/01/08 05:03:44;;;;;;;18.23;9.02;;;;;;;-0.58;96.20;101146.50;5014204;28;20033;-91
2022/01/08 05:06:09;;;;;;;23.15;10.57;;;;;;;-0.63;96.68;101138.56;5014338;28;20438;-91
2022/01/08 05:08:35;;;;;;;22.40;10.73;;;;;;;-0.61;96.77;101139.50;5014188;28;20029;-91
2022/01/08 05:11:01;;;;;;;19.23;9.70;;;;;;;-0.55;96.76;101143.97;5014339;28;20035;-92
2022/01/08 05:13:27;;;;;;;20.00;9.68;;;;;;;-0.59;96.71;101140.44;5016296;28;20037;-92
2022/01/08 05:15:52;;;;;;;21.15;10.20;;;;;;;-0.58;96.92;101134.38;5013812;28;20353;-90
2022/01/08 05:18:18;;;;;;;25.15;11.48;;;;;;;-0.58;96.81;101143.91;5014190;28;20047;-90
2022/01/08 05:20:53;;;;;;;23.42;10.10;;;;;;;-0.56;96.91;101155.22;5014827;28;20131;-91
2022/01/08 05:23:18;;;;;;;19.08;9.23;;;;;;;-0.61;97.00;101147.28;5014203;28;20423;-91
2022/01/08 05:25:44;;;;;;;22.77;11.48;;;;;;;-0.62;97.53;101135.09;5014229;28;20033;-91
2022/01/08 05:28:10;;;;;;;27.95;9.80;;;;;;;-0.53;97.67;101147.50;5013935;28;20054;-93
2022/01/08 05:30:35;;;;;;;30.45;10.98;;;;;;;-0.58;97.60;101130.91;5015607;28;20132;-92
2022/01/08 05:33:01;;;;;;;23.65;9.25;;;;;;;-0.56;97.61;101131.81;5034417;28;20450;-91
2022/01/08 05:35:27;;;;;;;17.70;7.32;;;;;;;-0.53;97.55;101143.19;5001539;28;20037;-92
2022/01/08 05:37:54;;;;;;;17.65;9.85;;;;;;;-0.56;97.70;101150.91;5017797;28;20033;-91
2022/01/08 05:40:19;;;;;;;18.17;9.85;;;;;;;-0.50;97.89;101148.47;5017926;28;20132;-92
2022/01/08 05:42:45;;;;;;;23.67;9.27;;;;;;;-0.46;98.33;101152.94;5034386;28;20061;-91
2022/01/08 05:45:10;;;;;;;24.00;10.30;;;;;;;-0.42;97.92;101143.50;5018940;28;20041;-91
2022/01/08 05:47:37;;;;;;;23.25;10.70;;;;;;;-0.38;97.76;101152.25;5018668;28;20033;-91
2022/01/08 05:50:03;;;;;;;20.52;9.88;;;;;;;-0.40;98.10;101146.13;5017826;28;20029;-91
2022/01/08 05:52:29;;;;;;;21.63;9.63;;;;;;;-0.41;98.02;101145.25;5018478;28;20116;-91
2022/01/08 05:54:54;;;;;;;23.38;10.25;;;;;;;-0.37;97.89;101160.13;5017704;28;20422;-91
2022/01/08 05:57:20;;;;;;;16.65;9.13;;;;;;;-0.34;97.66;101151.50;5034062;28;20426;-92
2022/01/08 05:59:45;;;;;;;21.33;9.55;;;;;;;-0.36;97.61;101161.00;5017981;28;20127;-91
2022/01/08 06:02:11;;;;;;;21.65;9.00;;;;;;;-0.34;97.85;101160.19;5017794;28;20045;-90
2022/01/08 06:04:37;;;;;;;22.67;9.40;;;;;;;-0.36;97.50;101156.66;5017692;28;20049;-90
2022/01/08 06:07:03;;;;;;;20.30;8.65;;;;;;;-0.36;97.42;101168.81;5017205;28;20037;-91
2022/01/08 06:09:29;;;;;;;26.45;10.13;;;;;;;-0.37;97.51;101177.44;5033618;28;20401;-91
2022/01/08 06:11:54;;;;;;;21.65;9.82;;;;;;;-0.36;97.45;101176.59;5017223;28;20033;-90
2022/01/08 06:14:20;;;;;;;17.42;8.77;;;;;;;-0.35;97.46;101175.75;5030066;28;20169;-91
2022/01/08 06:16:47;;;;;;;23.02;9.77;;;;;;;-0.37;97.12;101185.22;5037053;28;20047;-91
2022/01/08 06:19:14;;;;;;;25.52;9.77;;;;;;;-0.47;97.38;101177.19;5037184;28;20021;-90
2022/01/08 06:21:40;;;;;;;27.75;11.52;;;;;;;-0.48;97.24;101175.41;5036550;28;20070;-91
2022/01/08 06:24:06;;;;;;;22.58;11.25;;;;;;;-0.39;97.48;101187.81;5036785;28;20029;-92
2022/01/08 06:26:32;;;;;;;20.65;10.38;;;;;;;-0.39;97.56;101182.59;5036456;28;20033;-91
2022/01/08 06:28:58;;;;;;;17.02;9.40;;;;;;;-0.48;97.63;101167.59;5036545;28;20036;-91
2022/01/08 06:31:24;;;;;;;21.15;10.10;;;;;;;-0.39;97.72;101189.53;5036690;28;20025;-91
2022/01/08 06:33:51;;;;;;;14.57;7.82;;;;;;;-0.40;97.72;101182.56;5036693;28;20035;-91
2022/01/08 06:36:20;;;;;;;20.55;10.63;;;;;;;-0.44;97.77;101176.41;5036266;28;20037;-91
2022/01/08 06:38:46;;;;;;;19.00;9.68;;;;;;;-0.45;97.45;101175.47;5036067;28;20036;-92
2022/01/08 06:41:12;;;;;;;21.13;10.45;;;;;;;-0.47;97.46;101168.47;5037666;28;20056;-91
2022/01/08 06:43:38;;;;;;;27.95;10.38;;;;;;;-0.40;97.64;101174.75;5051946;28;20112;-91
2022/01/08 06:46:03;;;;;;;18.63;9.55;;;;;;;-0.43;97.80;101166.00;5019851;28;20178;-92
2022/01/08 06:48:29;;;;;;;18.17;8.32;;;;;;;-0.39;97.44;101163.53;5036224;28;20107;-91
2022/01/08 06:50:54;;;;;;;20.77;9.45;;;;;;;-0.38;97.41;101173.94;5035900;28;20617;-91
2022/01/08 06:53:20;;;;;;;18.95;8.93;;;;;;;-0.42;97.66;101148.69;5052510;28;20040;-91
2022/01/08 06:55:46;;;;;;;19.35;9.15;;;;;;;-0.43;97.32;101158.22;5035860;28;20048;-92
2022/01/08 06:58:12;;;;;;;20.60;8.95;;;;;;;-0.51;97.58;101144.13;5036047;28;20024;-92
2022/01/08 07:00:38;;;;;;;16.02;8.57;;;;;;;-0.49;97.25;101159.78;5035669;28;20035;-91
2022/01/08 07:03:05;;;;;;;18.10;8.35;;;;;;;-0.54;97.43;101154.44;5035518;28;20067;-91
2022/01/08 07:05:31;;;;;;;17.75;8.23;;;;;;;-0.54;97.28;101154.44;5052240;28;20032;-91
2022/01/08 07:08:14;;;;;;;15.90;8.02;;;;;;;-0.55;97.54;101165.66;5052253;28;20033;-91
2022/01/08 07:10:39;;;;;;;22.35;9.73;;;;;;;-0.49;97.62;101172.78;5035714;28;20025;-91
2022/01/08 07:13:05;;;;;;;23.77;9.43;;;;;;;-0.51;97.83;101167.53;5017112;28;20448;-91
2022/01/08 07:15:33;;;;;;;19.05;9.48;;;;;;;-0.60;97.80;101154.25;5016090;28;20030;-91
2022/01/08 07:17:59;;;;;;;19.77;10.18;;;;;;;-0.55;97.38;101165.66;5015995;28;20032;-91
2022/01/08 07:20:25;;;;;;;27.88;9.43;;;;;;;-0.58;97.70;101160.38;5032807;28;20104;-91
2022/01/08 07:22:50;;;;;;;25.60;10.93;;;;;;;-0.60;97.38;101154.25;5016014;28;20380;-90
2022/01/08 07:25:16;;;;;;;26.02;9.88;;;;;;;-0.58;97.46;101170.78;5015757;28;20095;-92
2022/01/08 07:27:42;;;;;;;18.02;8.77;;;;;;;-0.65;97.78;101161.91;5015554;28;20439;-90
2022/01/08 07:30:09;;;;;;;18.42;8.77;;;;;;;-0.59;97.67;101171.63;5015558;28;20065;-92
2022/01/08 07:32:46;;;;;;;16.25;7.72;;;;;;;-0.62;97.39;101162.84;5015709;28;20346;-91
2022/01/08 07:35:14;;;;;;;19.83;8.75;;;;;;;-0.61;97.62;101164.63;5015763;28;20433;-91
2022/01/08 07:37:41;;;;;;;17.98;8.40;;;;;;;-0.63;97.64;101156.78;5031935;28;20028;-91
2022/01/08 07:40:20;;;;;;;15.98;8.70;;;;;;;-0.63;98.07;101150.69;4999033;28;20044;-91
2022/01/08 07:42:46;;;;;;;21.48;9.02;;;;;;;-0.65;97.84;101146.31;4999395;28;20083;-91
2022/01/08 07:45:22;;;;;;;14.27;8.07;;;;;;;-0.61;97.83;101149.91;5045989;28;20032;-91
2022/01/08 07:47:48;;;;;;;22.58;10.38;;;;;;;-0.61;98.54;101157.69;5035851;28;20048;-91
2022/01/08 07:50:20;;;;;;;15.95;8.57;;;;;;;-0.52;98.20;101157.97;5052034;28;20032;-92
2022/01/08 07:52:49;;;;;;;22.67;9.23;;;;;;;-0.58;97.74;101141.28;5034502;28;20040;-92
2022/01/08 07:55:14;;;;;;;18.65;8.90;;;;;;;-0.57;98.05;101143.03;5034499;28;20017;-92
2022/01/08 07:57:41;;;;;;;21.48;9.30;;;;;;;-0.53;98.44;101140.59;5034741;28;20066;-92
2022/01/08 08:00:08;;;;;;;21.67;10.30;;;;;;;-0.45;98.00;101143.38;5018255;28;20040;-88
2022/01/08 08:02:40;;;;;;;20.10;10.68;;;;;;;-0.44;98.20;101139.97;5035177;28;20028;-89
2022/01/08 08:05:06;;;;;;;19.10;10.80;;;;;;;-0.47;98.35;101135.56;5017661;28;20055;-89
2022/01/08 08:07:37;;;;;;;17.88;8.68;;;;;;;-0.44;98.51;101135.63;5033977;28;20033;-89
2022/01/08 08:10:07;;;;;;;;;;;;;;;-0.32;98.20;101147.19;5034613;28;20115;-89
2022/01/08 08:12:33;;;;;;;17.00;9.10;;;;;;;-0.37;97.78;101126.28;5050750;28;19913;-89
2022/01/08 08:14:58;;;;;;;25.58;8.55;;;;;;;-0.30;98.19;101140.31;5050630;28;20112;-89
2022/01/08 08:17:25;;;;;;;21.83;9.40;;;;;;;-0.30;98.46;101140.31;5034514;28;20393;-89
2022/01/08 08:19:50;;;;;;;19.35;9.10;;;;;;;-0.29;98.61;101135.19;5033787;28;20032;-88
2022/01/08 08:22:16;;;;;;;20.65;9.48;;;;;;;-0.25;98.34;101124.03;5018070;28;20033;-88
2022/01/08 08:24:41;;;;;;;18.08;9.07;;;;;;;-0.28;98.52;101120.44;5033922;28;20446;-89
2022/01/08 08:27:07;;;;;;;16.08;9.07;;;;;;;-0.32;98.65;101119.50;5017776;28;20112;-89
2022/01/08 08:29:33;;;;;;;21.13;10.30;;;;;;;-0.31;98.67;101112.56;5034075;28;20040;-88
2022/01/08 08:31:58;;;;;;;16.33;8.85;;;;;;;-0.20;98.75;101124.13;5049916;28;20032;-88
2022/01/08 08:34:24;;;;;;;22.17;9.63;;;;;;;-0.22;98.91;101118.88;5050681;28;20041;-89
2022/01/08 08:36:50;;;;;;;17.17;9.27;;;;;;;-0.17;98.65;101119.00;5050418;28;20119;-88
2022/01/08 08:39:15;;;;;;;18.33;8.93;;;;;;;-0.16;99.09;101119.88;5001078;28;20021;-89
2022/01/08 08:41:41;;;;;;;20.90;9.60;;;;;;;-0.15;98.82;101113.81;5033821;28;20415;-89
2022/01/08 08:44:06;;;;;;;26.67;9.63;;;;;;;-0.10;98.98;101118.34;5033461;28;20033;-88
2022/01/08 08:46:32;;;;;;;24.38;10.02;;;;;;;-0.03;98.73;101112.41;5033897;28;20132;-88
2022/01/08 08:48:57;;;;;;;19.75;10.50;;;;;;;-0.05;98.96;101100.19;5034121;28;20037;-87
2022/01/08 08:51:23;;;;;;;22.92;9.95;;;;;;;0.03;98.83;101109.09;5017567;28;20499;-89
2022/01/08 08:53:48;;;;;;;19.00;10.50;;;;;;;0.05;99.17;101114.34;5017213;28;20041;-87
2022/01/08 08:56:14;;;;;;;27.45;11.43;;;;;;;0.09;99.30;101103.16;5033677;28;20063;-88
2022/01/08 08:58:40;;;;;;;22.42;10.52;;;;;;;0.06;98.57;101095.28;5049918;28;20481;-89
2022/01/08 09:01:06;;;;;;;21.80;10.48;;;;;;;0.13;98.96;101115.44;5033855;28;20037;-89
2022/01/08 09:03:31;;;;;;;21.58;10.77;;;;;;;0.09;98.88;101098.84;5018670;28;20044;-88
2022/01/08 09:05:57;;;;;;;26.90;12.55;;;;;;;0.16;98.54;101098.16;5035417;28;20025;-91
2022/01/08 09:08:23;;;;;;;22.13;12.00;;;;;;;0.15;98.70;101101.59;5053208;28;20039;-89
2022/01/08 09:10:50;;;;;;;22.08;11.10;;;;;;;0.25;98.79;101109.63;5038558;28;20472;-89
2022/01/08 09:13:16;;;;;;;27.25;13.88;;;;;;;0.23;98.84;101104.41;5004232;28;20095;-89
2022/01/08 09:15:42;;;;;;;22.85;12.20;;;;;;;0.27;98.72;101098.41;5046440;28;20037;-90
2022/01/08 09:18:09;;;;;;;23.52;13.55;;;;;;;0.27;98.38;101098.41;5034685;28;20014;-90
2022/01/08 09:20:36;;;;;;;27.67;13.05;;;;;;;0.42;98.44;101108.31;5035648;28;20049;-91
2022/01/08 09:23:02;;;;;;;26.20;11.18;;;;;;;0.35;97.90;101086.47;5036028;28;20149;-90
2022/01/08 09:25:30;;;;;;;29.38;13.25;;;;;;;0.39;98.19;101098.69;5038086;28;20477;-92
2022/01/08 09:27:55;;;;;;;25.88;14.50;;;;;;;0.38;98.56;101080.44;5003660;28;20041;-90
2022/01/08 09:30:21;;;;;;;26.67;14.60;;;;;;;0.45;98.44;101078.88;5033383;28;20048;-90
2022/01/08 09:32:47;;;;;;;28.55;14.35;;;;;;;0.42;98.05;101071.81;5048977;28;20495;-89
2022/01/08 09:35:15;;;;;;;20.50;12.75;;;;;;;0.52;97.86;101070.31;5033038;28;20025;-90
2022/01/08 09:37:40;;;;;;;26.63;13.60;;;;;;;0.53;98.13;101066.88;5032868;28;20116;-88
2022/01/08 09:40:14;;;;;;;32.70;13.98;;;;;;;0.58;98.23;101076.56;5032981;28;20068;-90
2022/01/08 09:42:41;;;;;;;24.98;13.60;;;;;;;0.66;98.09;101081.06;5049184;28;20032;-89
2022/01/08 09:45:08;;;;;;;30.88;13.95;;;;;;;0.66;98.38;101075.84;5019383;28;20396;-89
2022/01/08 09:47:33;;;;;;;21.95;11.85;;;;;;;0.67;98.19;101068.06;5012826;28;20025;-88
2022/01/08 09:50:02;;;;;;;32.30;14.98;;;;;;;0.70;97.94;101060.31;5012452;28;20055;-89
2022/01/08 09:52:32;;;;;;;21.35;12.68;;;;;;;0.74;98.16;101069.06;5029307;28;20037;-88
2022/01/08 09:54:58;;;;;;;25.88;13.80;;;;;;;0.75;98.36;101060.41;5012614;28;20037;-89
2022/01/08 09:57:24;;;;;;;27.98;13.23;;;;;;;0.76;97.98;101049.13;5012817;28;20048;-89
2022/01/08 09:59:50;;;;;;;22.23;13.55;;;;;;;0.72;98.17;101032.56;5012600;28;20033;-89
2022/01/08 10:02:21;;;;;;;28.83;14.07;;;;;;;0.80;98.16;101038.81;5012508;28;20068;-90
2022/01/08 10:04:47;;;;;;;23.35;13.25;;;;;;;0.82;97.59;101024.09;5029136;28;20089;-89
2022/01/08 10:07:26;;;;;;;26.17;15.05;;;;;;;0.83;97.80;101014.53;5012841;28;20124;-89
2022/01/08 10:10:17;;;;;;;22.15;12.10;;;;;;;0.85;98.03;101005.00;5012853;28;20033;-89
2022/01/08 10:12:59;;;;;;;22.48;11.50;;;;;;;0.88;97.89;100994.63;5012381;28;20095;-89
2022/01/08 10:18:25;;;;;;;27.65;13.52;;;;;;;1.03;97.53;100975.81;5034653;28;20190;-88
2022/01/08 10:20:52;;;;;;;29.95;14.65;;;;;;;1.04;97.96;100957.59;5023015;28;20064;-90
2022/01/08 10:23:21;;;;;;;24.15;13.57;;;;;;;1.08;97.82;100956.78;5016249;28;20037;-89
2022/01/08 10:25:57;;;;;;;26.27;14.50;;;;;;;1.14;97.37;100956.03;5034534;28;20039;-90
2022/01/08 10:28:41;;;;;;;20.23;10.57;;;;;;;1.24;97.71;100954.47;5032459;28;20113;-89
2022/01/08 10:31:11;;;;;;;23.38;13.52;;;;;;;1.19;96.99;100937.88;5032859;28;20485;-91
2022/01/08 10:33:38;;;;;;;29.08;13.13;;;;;;;1.21;96.78;100942.25;5032168;28;20037;-88
2022/01/08 10:36:04;;;;;;;30.27;14.07;;;;;;;1.31;96.61;100939.78;5016287;28;20040;-89
2022/01/08 10:38:30;;;;;;;36.70;15.48;;;;;;;1.26;96.82;100934.47;5033228;28;20032;-90
2022/01/08 10:40:58;;;;;;;32.95;14.23;;;;;;;1.32;96.73;100928.53;5016597;28;20041;-89
2022/01/08 10:43:30;;;;;;;26.17;13.45;;;;;;;1.29;96.58;100922.38;5016407;28;20132;-89
2022/01/08 10:46:08;;;;;;;33.00;13.93;;;;;;;1.33;95.94;100918.09;5016000;28;20416;-88
2022/01/08 10:48:37;;;;;;;31.50;16.75;;;;;;;1.41;96.02;100915.59;5016163;28;20033;-91
2022/01/08 10:51:18;;;;;;;32.45;13.63;;;;;;;1.37;96.19;100893.81;5016606;28;20033;-89
2022/01/08 10:53:58;;;;;;;31.13;13.77;;;;;;;1.45;95.84;100889.59;5016372;28;20178;-91
2022/01/08 10:56:27;;;;;;;27.42;13.88;;;;;;;1.37;95.71;100869.47;5016578;28;20351;-90
2022/01/08 10:59:07;;;;;;;25.23;14.27;;;;;;;1.43;95.85;100865.19;5016605;28;20034;-90
2022/01/08 11:01:48;;;;;;;26.63;12.90;;;;;;;1.43;95.66;100859.97;5017784;28;20067;-90
2022/01/08 11:04:16;;;;;;;31.05;13.90;;;;;;;1.46;95.66;100846.13;5016921;28;20465;-93
2022/01/08 11:06:59;;;;;;;18.23;11.57;;;;;;;1.55;95.02;100855.81;5033575;28;20033;-90
2022/01/08 11:09:26;;;;;;;23.98;12.43;;;;;;;1.58;95.47;100856.72;5033977;28;20029;-91
2022/01/08 11:11:54;;;;;;;23.60;12.45;;;;;;;1.62;95.42;100850.69;5001715;28;20060;-90
2022/01/08 11:14:44;;;;;;;20.92;11.40;;;;;;;1.66;95.54;100844.69;5046260;28;20028;-91
2022/01/08 11:17:10;;;;;;;24.25;10.98;;;;;;;1.64;95.28;100822.03;5053892;28;20036;-90
2022/01/08 11:19:42;;;;;;;28.05;15.07;;;;;;;1.71;95.81;100819.53;5040538;28;20017;-92
2022/01/08 11:22:10;;;;;;;24.25;13.35;;;;;;;1.75;95.37;100819.56;5041498;28;20029;-90
2022/01/08 11:25:06;;;;;;;21.80;11.07;;;;;;;1.81;95.69;100815.31;5040639;28;20032;-90
2022/01/08 11:27:43;;;;;;;24.77;11.15;;;;;;;1.93;94.13;100819.81;5054839;28;20037;-91
2022/01/08 11:30:12;;;;;;;23.35;11.23;;;;;;;1.94;94.73;100813.72;5039693;28;20053;-91
2022/01/08 11:32:39;;;;;;;23.48;11.48;;;;;;;1.93;94.42;100788.47;5039441;28;20033;-90
2022/01/08 11:35:07;;;;;;;23.42;10.35;;;;;;;2.07;95.22;100799.06;5043186;28;20362;-90
2022/01/08 11:37:33;;;;;;;26.00;12.20;;;;;;;2.16;94.69;100793.97;5041085;28;20036;-92
2022/01/08 11:40:03;;;;;;;18.17;10.25;;;;;;;2.22;95.18;100782.69;5039095;28;20048;-91